createdAt,value
2022-10-11T00:01:16.781Z,71.54
2022-10-11T00:03:43.246Z,72.10
2022-10-11T00:06:09.648Z,71.80
2022-10-11T00:08:36.181Z,71.72
2022-10-11T00:11:05.908Z,72.08
2022-10-11T00:13:32.727Z,71.65
2022-10-11T00:15:59.300Z,72.04
2022-10-11T00:18:26.213Z,72.12
2022-10-11T00:21:11.023Z,72.32
2022-10-11T00:23:37.709Z,72.66
2022-10-11T00:26:07.032Z,72.48
2022-10-11T00:28:34.030Z,72.29
2022-10-11T00:31:01.102Z,72.65
2022-10-11T00:33:27.746Z,72.54
2022-10-11T00:35:54.032Z,72.42
2022-10-11T00:38:21.079Z,72.57
2022-10-11T00:40:47.330Z,72.78
2022-10-11T00:43:21.196Z,72.80
2022-10-11T00:46:04.039Z,72.98
2022-10-11T00:48:48.538Z,73.65
2022-10-11T00:51:30.349Z,73.27
2022-10-11T00:54:00.895Z,73.39
2022-10-11T00:56:32.024Z,73.53
2022-10-11T00:59:01.932Z,73.89
2022-10-11T01:01:28.315Z,73.67
2022-10-11T01:03:55.495Z,73.67
2022-10-11T01:06:21.853Z,73.88
2022-10-11T01:08:49.612Z,74.19
2022-10-11T01:11:20.597Z,74.01
2022-10-11T01:14:11.780Z,74.22
2022-10-11T01:17:00.898Z,74.29
2022-10-11T01:19:50.620Z,74.24
2022-10-11T01:22:49.789Z,74.31
2022-10-11T01:25:16.002Z,74.47
2022-10-11T01:27:47.780Z,74.90
2022-10-11T01:30:32.316Z,74.97
2022-10-11T01:33:17.648Z,74.71
2022-10-11T01:36:11.509Z,74.72
2022-10-11T01:38:52.874Z,74.88
2022-10-11T01:41:30.984Z,74.99
2022-10-11T01:44:00.607Z,75.20
2022-10-11T01:46:29.007Z,75.03
2022-10-11T01:48:58.666Z,75.38
2022-10-11T01:51:33.818Z,75.60
2022-10-11T01:54:06.854Z,75.49
2022-10-11T01:56:55.595Z,75.57
2022-10-11T01:59:33.620Z,75.67
2022-10-11T02:02:23.143Z,75.60
2022-10-11T02:05:05.325Z,75.44
2022-10-11T02:07:48.679Z,75.81
2022-10-11T02:10:25.568Z,75.81
2022-10-11T02:12:59.769Z,75.76
2022-10-11T02:15:30.495Z,76.08
2022-10-11T02:17:59.968Z,76.16
2022-10-11T02:20:29.489Z,76.26
2022-10-11T02:23:02.933Z,76.31
2022-10-11T02:25:33.729Z,76.22
2022-10-11T02:28:04.717Z,76.54
2022-10-11T02:30:32.325Z,76.67
2022-10-11T02:33:04.211Z,76.67
2022-10-11T02:35:36.153Z,76.76
2022-10-11T02:38:14.793Z,76.95
2022-10-11T02:40:46.236Z,76.94
2022-10-11T02:43:18.756Z,76.80
2022-10-11T02:45:52.821Z,77.44
2022-10-11T02:48:19.525Z,77.29
2022-10-11T02:50:46.587Z,77.50
2022-10-11T02:53:12.902Z,77.40
2022-10-11T02:55:39.397Z,77.41
2022-10-11T02:58:05.623Z,77.60
2022-10-11T03:00:31.906Z,77.64
2022-10-11T03:02:58.195Z,77.69
2022-10-11T03:05:24.440Z,77.99
2022-10-11T03:07:50.719Z,77.67
2022-10-11T03:10:16.995Z,77.97
2022-10-11T03:12:43.326Z,78.11
2022-10-11T03:15:09.913Z,77.97
2022-10-11T03:17:37.308Z,78.17
2022-10-11T03:20:05.080Z,78.19
2022-10-11T03:22:31.365Z,78.28
2022-10-11T03:25:02.725Z,78.60
2022-10-11T03:27:32.044Z,78.35
2022-10-11T03:29:58.314Z,78.65
2022-10-11T03:32:24.744Z,78.86
2022-10-11T03:34:51.343Z,79.22
2022-10-11T03:37:17.660Z,79.23
2022-10-11T03:39:45.006Z,79.35
2022-10-11T03:42:12.253Z,79.54
2022-10-11T03:44:38.566Z,79.57
2022-10-11T03:47:05.321Z,79.71
2022-10-11T03:49:31.691Z,79.86
2022-10-11T03:51:58.492Z,79.86
2022-10-11T03:54:25.104Z,79.75
2022-10-11T03:56:51.465Z,80.01
2022-10-11T03:59:17.712Z,80.12
2022-10-11T04:01:43.977Z,80.10
2022-10-11T04:04:10.326Z,81.12
2022-10-11T04:06:36.576Z,81.26
2022-10-11T04:09:03.068Z,81.97
2022-10-11T04:11:29.341Z,82.71
2022-10-11T04:13:56.184Z,83.09
2022-10-11T04:16:22.462Z,83.77
2022-10-11T04:18:48.673Z,84.98
2022-10-11T04:21:14.966Z,84.71
2022-10-11T04:23:41.245Z,84.69
2022-10-11T04:26:08.344Z,85.55
2022-10-11T04:28:35.238Z,86.09
2022-10-11T04:31:03.573Z,87.03
2022-10-11T04:33:30.234Z,87.83
2022-10-11T04:35:56.808Z,86.85
2022-10-11T04:38:23.759Z,87.42
2022-10-11T04:40:50.451Z,87.97
2022-10-11T04:43:18.298Z,86.83
2022-10-11T04:45:45.150Z,87.21
2022-10-11T04:48:11.465Z,87.13
2022-10-11T04:50:37.936Z,87.97
2022-10-11T04:53:07.215Z,87.33
2022-10-11T04:55:33.477Z,87.97
2022-10-11T04:58:01.442Z,87.69
2022-10-11T05:00:27.702Z,87.59
2022-10-11T05:02:54.454Z,87.57
2022-10-11T05:05:20.703Z,86.83
2022-10-11T05:07:47.148Z,86.41
2022-10-11T05:10:13.981Z,86.54
2022-10-11T05:12:40.478Z,86.59
2022-10-11T05:15:07.397Z,86.49
2022-10-11T05:17:33.888Z,86.56
2022-10-11T05:20:00.147Z,86.36
2022-10-11T05:22:26.438Z,86.21
2022-10-11T05:24:52.657Z,85.98
2022-10-11T05:27:18.933Z,86.38
2022-10-11T05:29:45.276Z,86.67
2022-10-11T05:32:11.514Z,86.44
2022-10-11T05:34:37.727Z,86.74
2022-10-11T05:37:04.292Z,86.91
2022-10-11T05:39:34.001Z,87.60
2022-10-11T05:42:01.291Z,87.49
2022-10-11T05:44:29.981Z,87.24
2022-10-11T05:46:56.183Z,87.15
2022-10-11T05:49:22.574Z,87.88
2022-10-11T05:51:48.810Z,88.18
2022-10-11T05:54:15.120Z,87.84
2022-10-11T05:56:41.364Z,88.02
2022-10-11T05:59:07.591Z,88.77
2022-10-11T06:01:33.963Z,88.60
2022-10-11T06:04:00.242Z,88.53
2022-10-11T06:06:26.460Z,89.18
2022-10-11T06:08:52.795Z,88.87
2022-10-11T06:11:25.060Z,89.23
2022-10-11T06:13:57.419Z,89.25
2022-10-11T06:16:24.499Z,90.11
2022-10-11T06:18:55.911Z,90.14
2022-10-11T06:21:23.239Z,90.02
2022-10-11T06:23:51.004Z,90.93
2022-10-11T06:26:21.694Z,91.14
2022-10-11T06:28:48.655Z,91.06
2022-10-11T06:31:15.001Z,91.66
2022-10-11T06:33:41.222Z,91.22
2022-10-11T06:36:10.777Z,91.30
2022-10-11T06:38:42.355Z,90.57
2022-10-11T06:41:20.012Z,91.45
2022-10-11T06:43:48.637Z,91.44
2022-10-11T06:46:16.353Z,91.01
2022-10-11T06:48:44.740Z,91.52
2022-10-11T06:51:12.569Z,91.41
2022-10-11T06:53:38.975Z,91.54
2022-10-11T06:56:08.884Z,91.61
2022-10-11T06:58:36.898Z,91.20
2022-10-11T07:01:10.169Z,90.99
2022-10-11T07:03:36.471Z,90.86
2022-10-11T07:06:08.579Z,90.91
2022-10-11T07:08:36.795Z,90.75
2022-10-11T07:11:11.738Z,90.66
2022-10-11T07:13:39.517Z,90.54
2022-10-11T07:16:09.741Z,90.55
2022-10-11T07:18:36.824Z,90.32
2022-10-11T07:21:05.557Z,90.30
2022-10-11T07:23:32.731Z,90.14
2022-10-11T07:25:59.363Z,90.22
2022-10-11T07:28:28.297Z,89.99
2022-10-11T07:30:54.768Z,89.60
2022-10-11T07:33:21.346Z,89.26
2022-10-11T07:35:49.073Z,89.19
2022-10-11T07:38:16.433Z,88.87
2022-10-11T07:40:45.245Z,88.70
2022-10-11T07:43:12.587Z,88.55
2022-10-11T07:46:02.161Z,88.50
2022-10-11T07:48:34.932Z,88.20
2022-10-11T07:51:11.756Z,88.05
2022-10-11T07:53:43.079Z,87.72
2022-10-11T07:56:11.875Z,87.32
2022-10-11T07:58:39.526Z,87.38
2022-10-11T08:01:09.711Z,87.15
2022-10-11T08:03:36.661Z,86.94
2022-10-11T08:06:07.190Z,86.83
2022-10-11T08:08:34.793Z,86.81
2022-10-11T08:11:01.268Z,86.77
2022-10-11T08:13:27.668Z,86.70
2022-10-11T08:16:12.381Z,86.68
2022-10-11T08:18:59.906Z,86.71
2022-10-11T08:21:51.285Z,86.17
2022-10-11T08:24:38.326Z,86.06
2022-10-11T08:32:29.112Z,85.27
2022-10-11T08:34:55.361Z,85.67
2022-10-11T08:37:21.671Z,84.98
2022-10-11T08:39:48.130Z,83.54
2022-10-11T08:42:23.420Z,83.03
2022-10-11T08:45:10.562Z,83.14
2022-10-11T08:47:41.979Z,82.15
2022-10-11T08:50:18.168Z,81.85
2022-10-11T08:52:50.329Z,81.39
2022-10-11T08:55:27.652Z,81.57
2022-10-11T08:57:55.803Z,79.83
2022-10-11T09:00:23.866Z,78.64
2022-10-11T09:03:08.504Z,79.50
2022-10-11T09:05:54.677Z,78.81
2022-10-11T09:08:52.572Z,78.91
2022-10-11T09:11:35.687Z,78.67
2022-10-11T09:14:11.091Z,77.80
2022-10-11T09:17:09.663Z,77.44
2022-10-11T09:19:56.541Z,78.05
2022-10-11T09:22:30.446Z,76.01
2022-10-11T09:25:03.139Z,76.29
2022-10-11T09:28:01.667Z,73.98
2022-10-11T09:30:29.047Z,73.61
2022-10-11T09:33:16.630Z,73.61
2022-10-11T09:35:46.711Z,72.82
2022-10-11T09:38:37.835Z,71.63
2022-10-11T09:41:28.408Z,72.06
2022-10-11T09:43:54.759Z,70.75
2022-10-11T09:46:39.602Z,71.01
2022-10-11T09:49:15.330Z,71.34
2022-10-11T09:51:46.840Z,69.83
2022-10-11T09:54:13.143Z,69.59
2022-10-11T09:56:43.046Z,69.12
2022-10-11T09:59:31.494Z,69.94
2022-10-11T10:02:13.507Z,68.79
2022-10-11T10:05:01.082Z,68.92
2022-10-11T10:07:29.734Z,69.70
2022-10-11T10:09:56.394Z,68.27
2022-10-11T10:12:28.830Z,68.90
2022-10-11T10:15:15.527Z,67.78
2022-10-11T10:17:49.344Z,69.10
2022-10-11T10:20:33.616Z,68.70
2022-10-11T10:23:16.603Z,69.09
2022-10-11T10:25:50.250Z,69.45
2022-10-11T10:28:26.894Z,70.04
2022-10-11T10:30:57.648Z,68.48
2022-10-11T10:33:26.681Z,66.87
2022-10-11T10:36:04.958Z,66.53
2022-10-11T10:38:40.069Z,67.24
2022-10-11T10:41:13.156Z,67.37
2022-10-11T10:43:42.142Z,67.52
2022-10-11T10:46:22.124Z,67.81
2022-10-11T10:49:52.673Z,68.12
2022-10-11T10:52:24.142Z,67.59
2022-10-11T10:55:12.514Z,67.40
2022-10-11T10:58:12.966Z,67.52
2022-10-11T11:00:49.767Z,67.73
2022-10-11T11:03:42.188Z,67.06
2022-10-11T11:06:25.708Z,65.91
2022-10-11T11:09:06.859Z,66.78
2022-10-11T11:11:55.431Z,67.31
2022-10-11T11:14:53.662Z,64.17
2022-10-11T11:17:42.261Z,64.22
2022-10-11T11:20:30.538Z,63.83
2022-10-11T11:23:18.572Z,63.56
2022-10-11T11:26:07.566Z,63.14
2022-10-11T11:28:44.070Z,64.32
2022-10-11T11:31:32.148Z,63.58
2022-10-11T11:34:12.955Z,62.09
2022-10-11T11:36:55.187Z,62.00
2022-10-11T11:39:45.408Z,61.78
2022-10-11T11:42:21.036Z,61.60
2022-10-11T11:48:18.295Z,61.44
2022-10-11T11:51:04.715Z,61.67
2022-10-11T11:53:41.757Z,61.39
2022-10-11T11:56:26.283Z,61.08
2022-10-11T11:59:02.448Z,60.37
2022-10-11T12:01:41.863Z,59.97
2022-10-11T12:04:30.997Z,60.26
2022-10-11T12:07:18.305Z,60.30
2022-10-11T12:09:51.082Z,59.17
2022-10-11T12:12:54.822Z,58.79
2022-10-11T12:15:29.874Z,58.15
2022-10-11T12:17:57.887Z,58.71
2022-10-11T12:20:29.198Z,58.97
2022-10-11T12:23:04.421Z,58.97
2022-10-11T12:25:35.952Z,58.70
2022-10-11T12:28:34.215Z,59.28
2022-10-11T12:31:15.753Z,58.81
2022-10-11T12:33:42.024Z,58.49
2022-10-11T12:36:29.005Z,57.92
2022-10-11T12:39:27.153Z,58.06
2022-10-11T12:42:06.901Z,56.39
2022-10-11T12:44:33.316Z,55.15
2022-10-11T12:47:24.658Z,54.09
2022-10-11T12:50:17.796Z,52.85
2022-10-11T12:53:10.234Z,52.35
2022-10-11T12:55:59.665Z,53.63
2022-10-11T12:58:40.522Z,52.12
2022-10-11T13:01:16.757Z,51.25
2022-10-11T13:03:49.974Z,51.83
2022-10-11T13:06:18.574Z,52.16
2022-10-11T13:08:52.297Z,53.00
2022-10-11T13:11:22.748Z,51.66
2022-10-11T13:13:55.961Z,49.74
2022-10-11T13:16:40.948Z,52.04
2022-10-11T13:19:13.318Z,52.96
2022-10-11T13:21:39.934Z,53.38
2022-10-11T13:24:13.040Z,52.68
2022-10-11T13:26:40.821Z,50.42
2022-10-11T13:29:23.394Z,50.65
2022-10-11T13:31:49.706Z,49.43
2022-10-11T13:34:22.341Z,49.23
2022-10-11T13:36:56.860Z,49.06
2022-10-11T13:39:34.274Z,48.91
2022-10-11T13:42:04.995Z,49.60
2022-10-11T13:44:33.305Z,49.14
2022-10-11T13:46:59.783Z,50.15
2022-10-11T13:49:39.233Z,49.43
2022-10-11T13:52:25.762Z,49.11
2022-10-11T13:55:10.800Z,49.24
2022-10-11T13:57:41.063Z,49.47
2022-10-11T14:00:14.630Z,49.27
2022-10-11T14:03:14.086Z,49.82
2022-10-11T14:05:43.297Z,50.79
2022-10-11T14:08:42.517Z,50.44
2022-10-11T14:11:11.252Z,51.27
2022-10-11T14:13:40.618Z,51.49
2022-10-11T14:16:07.789Z,51.99
2022-10-11T14:18:40.727Z,52.02
2022-10-11T14:21:22.881Z,52.03
2022-10-11T14:23:51.227Z,52.00
2022-10-11T14:26:19.231Z,52.04
2022-10-11T14:28:50.458Z,52.01
2022-10-11T14:31:16.867Z,51.62
2022-10-11T14:33:43.388Z,51.61
2022-10-11T14:36:09.708Z,51.53
2022-10-11T14:38:35.981Z,51.45
2022-10-11T14:41:02.286Z,51.63
2022-10-11T14:43:28.593Z,51.60
2022-10-11T14:45:55.156Z,50.47
2022-10-11T14:48:42.899Z,50.17
2022-10-11T14:51:12.167Z,49.92
2022-10-11T14:53:41.398Z,49.99
2022-10-11T14:56:07.947Z,49.31
2022-10-11T14:58:34.468Z,49.41
2022-10-11T15:01:00.710Z,49.77
2022-10-11T15:03:28.043Z,49.89
2022-10-11T15:05:54.967Z,50.18
2022-10-11T15:08:21.207Z,50.56
2022-10-11T15:10:47.439Z,50.67
2022-10-11T15:13:13.777Z,50.90
2022-10-11T15:15:40.829Z,51.17
2022-10-11T15:18:11.669Z,50.86
2022-10-11T15:20:41.114Z,51.27
2022-10-11T15:23:09.435Z,51.68
2022-10-11T15:25:37.624Z,51.80
2022-10-11T15:28:04.839Z,52.04
2022-10-11T15:30:40.965Z,52.19
2022-10-11T15:33:08.279Z,52.37
2022-10-11T15:35:34.537Z,52.50
2022-10-11T15:38:00.798Z,52.89
2022-10-11T15:40:32.802Z,53.04
2022-10-11T15:42:59.924Z,53.34
2022-10-11T15:45:26.565Z,53.62
2022-10-11T15:47:52.937Z,54.02
2022-10-11T15:50:41.885Z,54.34
2022-10-11T15:53:11.663Z,54.20
2022-10-11T15:55:43.541Z,54.69
2022-10-11T15:58:15.016Z,54.69
2022-10-11T16:00:43.493Z,55.05
2022-10-11T16:03:15.366Z,55.03
2022-10-11T16:05:42.680Z,55.02
2022-10-11T16:08:10.332Z,55.29
2022-10-11T16:10:37.734Z,55.56
2022-10-11T16:13:04.558Z,55.63
2022-10-11T16:15:30.851Z,55.72
2022-10-11T16:17:57.123Z,55.85
2022-10-11T16:20:24.987Z,56.03
2022-10-11T16:22:53.187Z,56.41
2022-10-11T16:25:20.701Z,56.67
2022-10-11T16:27:47.313Z,56.94
2022-10-11T16:30:15.043Z,56.92
2022-10-11T16:32:41.366Z,57.26
2022-10-11T16:35:08.267Z,57.57
2022-10-11T16:37:35.539Z,57.91
2022-10-11T16:40:01.836Z,58.22
2022-10-11T16:42:28.077Z,58.26
2022-10-11T16:44:54.300Z,58.29
2022-10-11T16:47:21.037Z,58.81
2022-10-11T16:49:47.285Z,58.74
2022-10-11T16:52:13.589Z,58.89
2022-10-11T16:54:46.996Z,58.97
2022-10-11T16:57:15.302Z,59.58
2022-10-11T16:59:41.775Z,59.37
2022-10-11T17:02:15.017Z,59.51
2022-10-11T17:04:41.765Z,59.96
2022-10-11T17:07:12.288Z,59.75
2022-10-11T17:09:43.768Z,60.25
2022-10-11T17:12:12.749Z,60.46
2022-10-11T17:14:40.846Z,60.64
2022-10-11T17:17:09.268Z,61.00
2022-10-11T17:19:41.340Z,60.76
2022-10-11T17:22:12.166Z,60.13
2022-10-11T17:24:38.515Z,60.30
2022-10-11T17:27:05.142Z,60.70
2022-10-11T17:29:32.250Z,60.44
2022-10-11T17:31:59.057Z,60.86
2022-10-11T17:34:25.295Z,60.88
2022-10-11T17:36:51.583Z,60.99
2022-10-11T17:39:21.523Z,61.67
2022-10-11T17:41:49.186Z,61.56
2022-10-11T17:44:17.362Z,61.36
2022-10-11T17:46:44.312Z,61.84
2022-10-11T17:49:11.426Z,61.85
2022-10-11T17:51:39.201Z,61.94
2022-10-11T17:54:05.853Z,62.58
2022-10-11T17:56:37.377Z,62.57
2022-10-11T17:59:04.629Z,62.44
2022-10-11T18:01:31.165Z,62.47
2022-10-11T18:04:00.421Z,62.43
2022-10-11T18:06:30.296Z,62.15
2022-10-11T18:08:59.723Z,62.99
2022-10-11T18:11:26.234Z,62.48
2022-10-11T18:13:52.918Z,63.08
2022-10-11T18:16:22.050Z,63.46
2022-10-11T18:18:49.020Z,63.88
2022-10-11T18:21:18.756Z,63.50
2022-10-11T18:23:45.759Z,63.58
2022-10-11T18:26:16.693Z,63.97
2022-10-11T18:28:43.873Z,64.05
2022-10-11T18:31:16.659Z,64.00
2022-10-11T18:33:45.230Z,64.17
2022-10-11T18:36:14.775Z,64.21
2022-10-11T18:38:45.682Z,64.02
2022-10-11T18:41:14.774Z,64.28
2022-10-11T18:43:41.088Z,64.30
2022-10-11T18:46:10.405Z,64.33
2022-10-11T18:48:40.938Z,64.44
2022-10-11T18:51:17.804Z,64.51
2022-10-11T18:53:44.858Z,64.63
2022-10-11T18:56:12.667Z,65.05
2022-10-11T18:58:42.450Z,65.25
2022-10-11T19:01:15.193Z,65.40
2022-10-11T19:03:42.893Z,65.23
2022-10-11T19:06:16.275Z,65.51
2022-10-11T19:08:44.350Z,65.08
2022-10-11T19:11:14.932Z,64.99
2022-10-11T19:13:42.318Z,65.17
2022-10-11T19:16:15.098Z,65.37
2022-10-11T19:18:44.429Z,65.72
2022-10-11T19:21:12.569Z,66.01
2022-10-11T19:23:41.463Z,65.86
2022-10-11T19:26:14.788Z,66.20
2022-10-11T19:28:41.315Z,66.17
2022-10-11T19:31:10.329Z,66.81
2022-10-11T19:33:36.646Z,66.87
2022-10-11T19:36:06.033Z,66.44
2022-10-11T19:38:34.093Z,66.85
2022-10-11T19:41:01.565Z,67.10
2022-10-11T19:43:27.848Z,67.32
2022-10-11T19:46:06.816Z,66.96
2022-10-11T19:48:38.783Z,67.30
2022-10-11T19:51:17.170Z,67.27
2022-10-11T19:53:43.958Z,66.89
2022-10-11T19:56:14.427Z,66.97
2022-10-11T19:58:42.117Z,67.22
2022-10-11T20:01:17.070Z,67.18
2022-10-11T20:03:51.172Z,67.40
2022-10-11T20:06:18.617Z,67.40
2022-10-11T20:08:45.262Z,67.90
2022-10-11T20:11:12.649Z,67.54
2022-10-11T20:13:39.142Z,68.00
2022-10-11T20:16:07.315Z,67.68
2022-10-11T20:18:33.611Z,67.72
2022-10-11T20:21:03.353Z,67.67
2022-10-11T20:23:35.327Z,67.82
2022-10-11T20:26:20.926Z,67.72
2022-10-11T20:28:54.992Z,67.94
2022-10-11T20:31:41.015Z,67.83
2022-10-11T20:34:08.970Z,67.65
2022-10-11T20:36:36.391Z,67.68
2022-10-11T20:39:04.915Z,67.70
2022-10-11T20:41:36.307Z,67.82
2022-10-11T20:44:03.147Z,67.76
2022-10-11T20:46:31.891Z,67.91
2022-10-11T20:49:02.123Z,67.96
2022-10-11T20:51:31.220Z,67.95
2022-10-11T20:54:01.150Z,68.09
2022-10-11T20:57:15.762Z,68.03
2022-10-11T20:59:50.595Z,68.28
2022-10-11T21:02:36.667Z,68.17
2022-10-11T21:05:07.413Z,68.25
2022-10-11T21:07:34.087Z,68.25
2022-10-11T21:10:01.231Z,68.35
2022-10-11T21:12:27.458Z,68.33
2022-10-11T21:14:53.736Z,68.23
2022-10-11T21:17:20.060Z,68.36
2022-10-11T21:19:47.347Z,68.50
2022-10-11T21:22:13.574Z,68.50
2022-10-11T21:24:39.806Z,68.47
2022-10-11T21:27:08.534Z,68.62
2022-10-11T21:29:34.776Z,68.60
2022-10-11T21:32:00.984Z,68.61
2022-10-11T21:34:27.236Z,68.72
2022-10-11T21:36:53.489Z,68.74
2022-10-11T21:39:19.892Z,68.90
2022-10-11T21:41:46.119Z,68.85
2022-10-11T21:44:12.396Z,68.96
2022-10-11T21:49:25.257Z,69.22
2022-10-11T21:51:51.522Z,69.16
2022-10-11T21:54:17.803Z,69.15
2022-10-11T21:56:44.070Z,69.27
2022-10-11T21:59:12.544Z,69.21
2022-10-11T22:01:41.103Z,69.45
2022-10-11T22:04:07.672Z,69.48
2022-10-11T22:06:35.400Z,69.60
2022-10-11T22:09:03.097Z,69.56
2022-10-11T22:11:29.902Z,69.78
2022-10-11T22:13:56.501Z,69.83
2022-10-11T22:16:22.839Z,69.97
2022-10-11T22:18:49.217Z,70.25
2022-10-11T22:21:18.527Z,70.32
2022-10-11T22:23:46.883Z,70.23
2022-10-11T22:26:16.481Z,70.43
2022-10-11T22:28:45.908Z,70.34
2022-10-11T22:31:13.587Z,70.41
2022-10-11T22:33:41.243Z,70.52
2022-10-11T22:36:09.534Z,70.48
2022-10-11T22:38:37.464Z,70.52
2022-10-11T22:41:03.827Z,70.45
2022-10-11T22:43:30.726Z,70.61
2022-10-11T22:45:57.302Z,70.51
2022-10-11T22:48:23.998Z,70.60
2022-10-11T22:50:50.755Z,70.58
2022-10-11T22:53:17.576Z,70.73
2022-10-11T22:55:43.908Z,70.80
2022-10-11T22:58:10.553Z,70.90
2022-10-11T23:00:37.115Z,70.87
2022-10-11T23:03:03.629Z,70.87
2022-10-11T23:05:29.901Z,70.99
2022-10-11T23:07:56.254Z,70.96
2022-10-11T23:10:22.613Z,71.05
2022-10-11T23:12:55.089Z,71.32
2022-10-11T23:15:21.412Z,71.37
2022-10-11T23:17:47.689Z,71.33
2022-10-11T23:20:14.156Z,71.49
2022-10-11T23:22:40.434Z,71.47
2022-10-11T23:25:07.552Z,71.45
2022-10-11T23:27:33.856Z,71.52
2022-10-11T23:30:00.189Z,71.60
2022-10-11T23:32:26.453Z,71.56
2022-10-11T23:34:52.797Z,71.75
2022-10-11T23:37:19.333Z,71.68
2022-10-11T23:39:45.684Z,71.98
2022-10-11T23:42:11.984Z,71.93
2022-10-11T23:44:38.506Z,72.00
2022-10-11T23:47:04.809Z,71.92
2022-10-11T23:49:31.115Z,72.04
2022-10-11T23:51:57.474Z,72.07
2022-10-11T23:54:23.826Z,72.27
2022-10-11T23:56:50.124Z,71.97
2022-10-11T23:59:16.403Z,72.08
